sensor_id;sensor_type;location;lat;lon;timestamp;P1;durP1;ratioP1;P2;durP2;ratioP2
66256;SDS011;53049;43.446;3.698;2022-10-16T00:01:12;14.52;;;6.45;;
66256;SDS011;53049;43.446;3.698;2022-10-16T00:03:39;14.30;;;6.05;;
66256;SDS011;53049;43.446;3.698;2022-10-16T00:06:06;13.90;;;6.47;;
66256;SDS011;53049;43.446;3.698;2022-10-16T00:08:33;13.18;;;5.88;;
66256;SDS011;53049;43.446;3.698;2022-10-16T00:11:00;17.60;;;5.72;;
66256;SDS011;53049;43.446;3.698;2022-10-16T00:13:30;15.15;;;6.22;;
66256;SDS011;53049;43.446;3.698;2022-10-16T00:15:58;18.25;;;6.00;;
66256;SDS011;53049;43.446;3.698;2022-10-16T00:18:24;11.75;;;5.93;;
66256;SDS011;53049;43.446;3.698;2022-10-16T00:20:51;17.10;;;6.38;;
66256;SDS011;53049;43.446;3.698;2022-10-16T00:23:17;15.32;;;6.05;;
66256;SDS011;53049;43.446;3.698;2022-10-16T00:25:43;14.90;;;5.68;;
66256;SDS011;53049;43.446;3.698;2022-10-16T00:28:08;15.18;;;5.65;;
66256;SDS011;53049;43.446;3.698;2022-10-16T00:30:37;15.90;;;5.32;;
66256;SDS011;53049;43.446;3.698;2022-10-16T00:33:03;12.73;;;5.40;;
66256;SDS011;53049;43.446;3.698;2022-10-16T00:35:30;13.50;;;6.38;;
66256;SDS011;53049;43.446;3.698;2022-10-16T00:37:55;18.45;;;6.53;;
66256;SDS011;53049;43.446;3.698;2022-10-16T00:40:21;13.15;;;6.22;;
66256;SDS011;53049;43.446;3.698;2022-10-16T00:42:47;16.98;;;5.90;;
66256;SDS011;53049;43.446;3.698;2022-10-16T00:45:12;17.13;;;5.85;;
66256;SDS011;53049;43.446;3.698;2022-10-16T00:47:44;14.00;;;5.75;;
66256;SDS011;53049;43.446;3.698;2022-10-16T00:50:25;13.63;;;5.90;;
66256;SDS011;53049;43.446;3.698;2022-10-16T00:53:00;15.07;;;6.20;;
66256;SDS011;53049;43.446;3.698;2022-10-16T00:55:27;16.83;;;6.10;;
66256;SDS011;53049;43.446;3.698;2022-10-16T00:57:55;18.10;;;7.60;;
66256;SDS011;53049;43.446;3.698;2022-10-16T01:00:23;18.13;;;6.65;;
66256;SDS011;53049;43.446;3.698;2022-10-16T01:02:53;15.20;;;6.47;;
66256;SDS011;53049;43.446;3.698;2022-10-16T01:05:24;14.30;;;6.07;;
66256;SDS011;53049;43.446;3.698;2022-10-16T01:10:57;13.60;;;6.15;;
66256;SDS011;53049;43.446;3.698;2022-10-16T01:15:56;21.02;;;6.82;;
66256;SDS011;53049;43.446;3.698;2022-10-16T01:18:51;19.38;;;6.93;;
66256;SDS011;53049;43.446;3.698;2022-10-16T01:21:28;19.10;;;7.25;;
66256;SDS011;53049;43.446;3.698;2022-10-16T01:24:01;16.05;;;7.30;;
66256;SDS011;53049;43.446;3.698;2022-10-16T01:29:06;21.63;;;7.18;;
66256;SDS011;53049;43.446;3.698;2022-10-16T01:31:34;17.98;;;6.75;;
66256;SDS011;53049;43.446;3.698;2022-10-16T01:34:05;19.58;;;7.47;;
66256;SDS011;53049;43.446;3.698;2022-10-16T01:36:35;17.40;;;6.93;;
66256;SDS011;53049;43.446;3.698;2022-10-16T01:39:05;17.65;;;6.85;;
66256;SDS011;53049;43.446;3.698;2022-10-16T01:41:34;15.80;;;7.43;;
66256;SDS011;53049;43.446;3.698;2022-10-16T01:44:05;17.77;;;7.22;;
66256;SDS011;53049;43.446;3.698;2022-10-16T01:46:52;18.45;;;7.57;;
66256;SDS011;53049;43.446;3.698;2022-10-16T01:49:19;17.35;;;9.00;;
66256;SDS011;53049;43.446;3.698;2022-10-16T01:51:49;13.38;;;7.13;;
66256;SDS011;53049;43.446;3.698;2022-10-16T01:54:19;16.45;;;7.43;;
66256;SDS011;53049;43.446;3.698;2022-10-16T01:56:45;20.63;;;8.10;;
66256;SDS011;53049;43.446;3.698;2022-10-16T01:59:15;14.57;;;7.15;;
66256;SDS011;53049;43.446;3.698;2022-10-16T02:01:44;23.88;;;7.93;;
66256;SDS011;53049;43.446;3.698;2022-10-16T02:06:54;18.88;;;7.35;;
66256;SDS011;53049;43.446;3.698;2022-10-16T02:09:20;18.67;;;7.53;;
66256;SDS011;53049;43.446;3.698;2022-10-16T02:11:46;22.95;;;8.10;;
66256;SDS011;53049;43.446;3.698;2022-10-16T02:14:14;19.98;;;7.45;;
66256;SDS011;53049;43.446;3.698;2022-10-16T02:16:41;20.05;;;7.93;;
66256;SDS011;53049;43.446;3.698;2022-10-16T02:19:08;21.08;;;8.55;;
66256;SDS011;53049;43.446;3.698;2022-10-16T02:26:45;21.80;;;7.95;;
66256;SDS011;53049;43.446;3.698;2022-10-16T02:29:19;26.30;;;8.55;;
66256;SDS011;53049;43.446;3.698;2022-10-16T02:31:49;22.63;;;8.10;;
66256;SDS011;53049;43.446;3.698;2022-10-16T02:34:19;23.50;;;8.02;;
66256;SDS011;53049;43.446;3.698;2022-10-16T02:36:46;19.85;;;8.60;;
66256;SDS011;53049;43.446;3.698;2022-10-16T02:39:13;22.23;;;7.93;;
66256;SDS011;53049;43.446;3.698;2022-10-16T02:41:40;23.63;;;8.18;;
66256;SDS011;53049;43.446;3.698;2022-10-16T02:44:06;21.58;;;8.23;;
66256;SDS011;53049;43.446;3.698;2022-10-16T02:46:31;23.08;;;7.75;;
66256;SDS011;53049;43.446;3.698;2022-10-16T02:48:57;21.30;;;7.82;;
66256;SDS011;53049;43.446;3.698;2022-10-16T02:51:23;20.20;;;7.40;;
66256;SDS011;53049;43.446;3.698;2022-10-16T02:53:48;20.70;;;6.97;;
66256;SDS011;53049;43.446;3.698;2022-10-16T02:56:14;19.20;;;6.97;;
66256;SDS011;53049;43.446;3.698;2022-10-16T02:58:39;22.10;;;7.30;;
66256;SDS011;53049;43.446;3.698;2022-10-16T03:01:05;21.75;;;7.07;;
66256;SDS011;53049;43.446;3.698;2022-10-16T03:03:31;20.63;;;7.38;;
66256;SDS011;53049;43.446;3.698;2022-10-16T03:05:56;23.30;;;7.13;;
66256;SDS011;53049;43.446;3.698;2022-10-16T03:08:22;19.40;;;6.95;;
66256;SDS011;53049;43.446;3.698;2022-10-16T03:10:50;16.17;;;7.00;;
66256;SDS011;53049;43.446;3.698;2022-10-16T03:13:16;15.05;;;6.63;;
66256;SDS011;53049;43.446;3.698;2022-10-16T03:15:45;20.95;;;7.75;;
66256;SDS011;53049;43.446;3.698;2022-10-16T03:18:10;19.77;;;7.10;;
66256;SDS011;53049;43.446;3.698;2022-10-16T03:20:36;16.35;;;7.38;;
66256;SDS011;53049;43.446;3.698;2022-10-16T03:23:02;18.40;;;7.35;;
66256;SDS011;53049;43.446;3.698;2022-10-16T03:25:28;18.25;;;7.55;;
66256;SDS011;53049;43.446;3.698;2022-10-16T03:27:54;20.52;;;8.00;;
66256;SDS011;53049;43.446;3.698;2022-10-16T03:30:19;17.00;;;7.30;;
66256;SDS011;53049;43.446;3.698;2022-10-16T03:32:45;18.40;;;7.80;;
66256;SDS011;53049;43.446;3.698;2022-10-16T03:35:11;21.63;;;8.38;;
66256;SDS011;53049;43.446;3.698;2022-10-16T03:37:37;18.08;;;8.38;;
66256;SDS011;53049;43.446;3.698;2022-10-16T03:40:03;18.95;;;7.82;;
66256;SDS011;53049;43.446;3.698;2022-10-16T03:42:30;18.73;;;8.02;;
66256;SDS011;53049;43.446;3.698;2022-10-16T03:44:55;20.50;;;8.68;;
66256;SDS011;53049;43.446;3.698;2022-10-16T03:47:21;21.48;;;8.90;;
66256;SDS011;53049;43.446;3.698;2022-10-16T03:49:48;27.20;;;8.30;;
66256;SDS011;53049;43.446;3.698;2022-10-16T03:52:14;20.23;;;8.23;;
66256;SDS011;53049;43.446;3.698;2022-10-16T03:54:40;21.33;;;8.90;;
66256;SDS011;53049;43.446;3.698;2022-10-16T03:57:06;20.35;;;8.27;;
66256;SDS011;53049;43.446;3.698;2022-10-16T03:59:31;21.42;;;8.77;;
66256;SDS011;53049;43.446;3.698;2022-10-16T04:01:57;21.40;;;9.90;;
66256;SDS011;53049;43.446;3.698;2022-10-16T04:04:23;22.90;;;10.15;;
66256;SDS011;53049;43.446;3.698;2022-10-16T04:06:49;24.35;;;10.05;;
66256;SDS011;53049;43.446;3.698;2022-10-16T04:09:15;25.38;;;10.32;;
66256;SDS011;53049;43.446;3.698;2022-10-16T04:11:41;21.83;;;10.48;;
66256;SDS011;53049;43.446;3.698;2022-10-16T04:14:07;26.77;;;10.65;;
66256;SDS011;53049;43.446;3.698;2022-10-16T04:16:32;27.75;;;11.65;;
66256;SDS011;53049;43.446;3.698;2022-10-16T04:18:58;21.25;;;11.40;;
66256;SDS011;53049;43.446;3.698;2022-10-16T04:21:24;19.95;;;11.75;;
66256;SDS011;53049;43.446;3.698;2022-10-16T04:23:49;22.80;;;11.43;;
66256;SDS011;53049;43.446;3.698;2022-10-16T04:26:15;26.50;;;12.13;;
66256;SDS011;53049;43.446;3.698;2022-10-16T04:28:40;24.85;;;12.07;;
66256;SDS011;53049;43.446;3.698;2022-10-16T04:31:06;20.23;;;11.43;;
66256;SDS011;53049;43.446;3.698;2022-10-16T04:33:32;27.92;;;11.15;;
66256;SDS011;53049;43.446;3.698;2022-10-16T04:35:58;22.83;;;11.35;;
66256;SDS011;53049;43.446;3.698;2022-10-16T04:38:25;21.60;;;10.93;;
66256;SDS011;53049;43.446;3.698;2022-10-16T04:40:52;27.67;;;12.45;;
66256;SDS011;53049;43.446;3.698;2022-10-16T04:43:18;26.20;;;11.93;;
66256;SDS011;53049;43.446;3.698;2022-10-16T04:45:44;20.48;;;10.32;;
66256;SDS011;53049;43.446;3.698;2022-10-16T04:48:09;22.02;;;10.68;;
66256;SDS011;53049;43.446;3.698;2022-10-16T04:50:35;21.90;;;10.35;;
66256;SDS011;53049;43.446;3.698;2022-10-16T04:53:01;23.00;;;10.07;;
66256;SDS011;53049;43.446;3.698;2022-10-16T04:55:27;24.58;;;10.00;;
66256;SDS011;53049;43.446;3.698;2022-10-16T04:57:52;22.70;;;11.07;;
66256;SDS011;53049;43.446;3.698;2022-10-16T05:00:18;19.40;;;9.32;;
66256;SDS011;53049;43.446;3.698;2022-10-16T05:02:44;21.50;;;10.27;;
66256;SDS011;53049;43.446;3.698;2022-10-16T05:05:10;22.08;;;10.80;;
66256;SDS011;53049;43.446;3.698;2022-10-16T05:07:36;23.95;;;9.45;;
66256;SDS011;53049;43.446;3.698;2022-10-16T05:10:02;23.27;;;10.18;;
66256;SDS011;53049;43.446;3.698;2022-10-16T05:12:28;21.52;;;10.27;;
66256;SDS011;53049;43.446;3.698;2022-10-16T05:14:54;20.25;;;9.32;;
66256;SDS011;53049;43.446;3.698;2022-10-16T05:17:23;21.23;;;9.73;;
66256;SDS011;53049;43.446;3.698;2022-10-16T05:19:50;18.23;;;9.45;;
66256;SDS011;53049;43.446;3.698;2022-10-16T05:22:16;24.60;;;9.90;;
66256;SDS011;53049;43.446;3.698;2022-10-16T05:24:41;18.60;;;9.45;;
66256;SDS011;53049;43.446;3.698;2022-10-16T05:27:07;21.58;;;9.95;;
66256;SDS011;53049;43.446;3.698;2022-10-16T05:29:33;20.55;;;9.52;;
66256;SDS011;53049;43.446;3.698;2022-10-16T05:31:58;20.88;;;9.48;;
66256;SDS011;53049;43.446;3.698;2022-10-16T05:34:24;22.13;;;10.10;;
66256;SDS011;53049;43.446;3.698;2022-10-16T05:36:50;19.42;;;10.02;;
66256;SDS011;53049;43.446;3.698;2022-10-16T05:39:16;23.05;;;10.45;;
66256;SDS011;53049;43.446;3.698;2022-10-16T05:41:42;26.67;;;10.35;;
66256;SDS011;53049;43.446;3.698;2022-10-16T05:44:08;23.15;;;10.50;;
66256;SDS011;53049;43.446;3.698;2022-10-16T05:46:33;16.92;;;9.85;;
66256;SDS011;53049;43.446;3.698;2022-10-16T05:48:59;22.45;;;10.63;;
66256;SDS011;53049;43.446;3.698;2022-10-16T05:51:25;24.05;;;11.48;;
66256;SDS011;53049;43.446;3.698;2022-10-16T05:53:51;21.38;;;10.45;;
66256;SDS011;53049;43.446;3.698;2022-10-16T05:56:17;26.23;;;11.00;;
66256;SDS011;53049;43.446;3.698;2022-10-16T05:58:43;22.55;;;10.13;;
66256;SDS011;53049;43.446;3.698;2022-10-16T06:01:13;23.55;;;10.60;;
66256;SDS011;53049;43.446;3.698;2022-10-16T06:03:41;22.73;;;10.32;;
66256;SDS011;53049;43.446;3.698;2022-10-16T06:06:10;22.10;;;10.80;;
66256;SDS011;53049;43.446;3.698;2022-10-16T06:08:47;20.58;;;9.80;;
66256;SDS011;53049;43.446;3.698;2022-10-16T06:11:14;20.88;;;9.57;;
66256;SDS011;53049;43.446;3.698;2022-10-16T06:13:44;22.15;;;9.85;;
66256;SDS011;53049;43.446;3.698;2022-10-16T06:16:14;22.92;;;10.43;;
66256;SDS011;53049;43.446;3.698;2022-10-16T06:18:39;19.60;;;9.82;;
66256;SDS011;53049;43.446;3.698;2022-10-16T06:21:12;20.88;;;9.95;;
66256;SDS011;53049;43.446;3.698;2022-10-16T06:23:41;21.02;;;11.00;;
66256;SDS011;53049;43.446;3.698;2022-10-16T06:26:08;19.98;;;10.40;;
66256;SDS011;53049;43.446;3.698;2022-10-16T06:28:35;23.30;;;11.00;;
66256;SDS011;53049;43.446;3.698;2022-10-16T06:31:01;26.13;;;10.45;;
66256;SDS011;53049;43.446;3.698;2022-10-16T06:33:27;20.70;;;9.93;;
66256;SDS011;53049;43.446;3.698;2022-10-16T06:35:53;25.77;;;11.25;;
66256;SDS011;53049;43.446;3.698;2022-10-16T06:38:18;21.65;;;10.50;;
66256;SDS011;53049;43.446;3.698;2022-10-16T06:40:44;19.52;;;10.20;;
66256;SDS011;53049;43.446;3.698;2022-10-16T06:43:10;29.42;;;10.65;;
66256;SDS011;53049;43.446;3.698;2022-10-16T06:45:35;23.13;;;9.70;;
66256;SDS011;53049;43.446;3.698;2022-10-16T06:48:02;23.40;;;9.65;;
66256;SDS011;53049;43.446;3.698;2022-10-16T06:50:27;27.38;;;10.48;;
66256;SDS011;53049;43.446;3.698;2022-10-16T06:52:53;18.20;;;10.00;;
66256;SDS011;53049;43.446;3.698;2022-10-16T06:55:19;23.23;;;10.13;;
66256;SDS011;53049;43.446;3.698;2022-10-16T06:57:46;20.20;;;10.13;;
66256;SDS011;53049;43.446;3.698;2022-10-16T07:00:13;24.83;;;10.73;;
66256;SDS011;53049;43.446;3.698;2022-10-16T07:02:39;26.27;;;10.35;;
66256;SDS011;53049;43.446;3.698;2022-10-16T07:05:05;25.38;;;11.00;;
66256;SDS011;53049;43.446;3.698;2022-10-16T07:07:31;24.80;;;10.50;;
66256;SDS011;53049;43.446;3.698;2022-10-16T07:09:56;25.30;;;9.88;;
66256;SDS011;53049;43.446;3.698;2022-10-16T07:12:22;22.73;;;9.95;;
66256;SDS011;53049;43.446;3.698;2022-10-16T07:14:47;22.83;;;10.15;;
66256;SDS011;53049;43.446;3.698;2022-10-16T07:17:17;19.90;;;9.32;;
66256;SDS011;53049;43.446;3.698;2022-10-16T07:19:42;23.25;;;10.10;;
66256;SDS011;53049;43.446;3.698;2022-10-16T07:22:08;21.75;;;9.68;;
66256;SDS011;53049;43.446;3.698;2022-10-16T07:24:34;21.02;;;9.23;;
66256;SDS011;53049;43.446;3.698;2022-10-16T07:26:59;22.85;;;9.80;;
66256;SDS011;53049;43.446;3.698;2022-10-16T07:29:25;19.20;;;9.32;;
66256;SDS011;53049;43.446;3.698;2022-10-16T07:31:51;24.65;;;9.23;;
66256;SDS011;53049;43.446;3.698;2022-10-16T07:34:17;23.45;;;9.82;;
66256;SDS011;53049;43.446;3.698;2022-10-16T07:36:44;22.50;;;8.57;;
66256;SDS011;53049;43.446;3.698;2022-10-16T07:39:12;18.17;;;8.30;;
66256;SDS011;53049;43.446;3.698;2022-10-16T07:41:37;19.90;;;8.30;;
66256;SDS011;53049;43.446;3.698;2022-10-16T07:44:03;24.42;;;9.57;;
66256;SDS011;53049;43.446;3.698;2022-10-16T07:46:29;23.15;;;8.32;;
66256;SDS011;53049;43.446;3.698;2022-10-16T07:48:56;21.48;;;10.05;;
66256;SDS011;53049;43.446;3.698;2022-10-16T07:51:22;24.58;;;9.52;;
66256;SDS011;53049;43.446;3.698;2022-10-16T07:53:49;25.17;;;10.70;;
66256;SDS011;53049;43.446;3.698;2022-10-16T07:56:16;24.40;;;10.32;;
66256;SDS011;53049;43.446;3.698;2022-10-16T07:58:43;26.70;;;10.23;;
66256;SDS011;53049;43.446;3.698;2022-10-16T08:01:09;22.70;;;9.52;;
66256;SDS011;53049;43.446;3.698;2022-10-16T08:03:38;24.58;;;9.07;;
66256;SDS011;53049;43.446;3.698;2022-10-16T08:06:06;28.42;;;9.85;;
66256;SDS011;53049;43.446;3.698;2022-10-16T08:08:31;24.45;;;8.82;;
66256;SDS011;53049;43.446;3.698;2022-10-16T08:10:57;20.50;;;8.75;;
66256;SDS011;53049;43.446;3.698;2022-10-16T08:13:23;23.30;;;9.00;;
66256;SDS011;53049;43.446;3.698;2022-10-16T08:15:48;23.00;;;8.57;;
66256;SDS011;53049;43.446;3.698;2022-10-16T08:18:15;19.92;;;9.07;;
66256;SDS011;53049;43.446;3.698;2022-10-16T08:20:41;20.95;;;9.02;;
66256;SDS011;53049;43.446;3.698;2022-10-16T08:23:08;24.40;;;8.88;;
66256;SDS011;53049;43.446;3.698;2022-10-16T08:25:36;22.92;;;8.15;;
66256;SDS011;53049;43.446;3.698;2022-10-16T08:28:03;25.02;;;8.68;;
66256;SDS011;53049;43.446;3.698;2022-10-16T08:30:30;22.30;;;9.18;;
66256;SDS011;53049;43.446;3.698;2022-10-16T08:32:59;19.50;;;9.10;;
66256;SDS011;53049;43.446;3.698;2022-10-16T08:35:26;23.45;;;9.57;;
66256;SDS011;53049;43.446;3.698;2022-10-16T08:37:52;21.17;;;8.68;;
66256;SDS011;53049;43.446;3.698;2022-10-16T08:40:19;21.13;;;8.73;;
66256;SDS011;53049;43.446;3.698;2022-10-16T08:45:28;23.90;;;8.40;;
66256;SDS011;53049;43.446;3.698;2022-10-16T08:51:08;21.65;;;8.18;;
66256;SDS011;53049;43.446;3.698;2022-10-16T08:53:44;19.70;;;8.70;;
66256;SDS011;53049;43.446;3.698;2022-10-16T08:56:14;26.80;;;9.50;;
66256;SDS011;53049;43.446;3.698;2022-10-16T08:58:42;27.60;;;9.55;;
66256;SDS011;53049;43.446;3.698;2022-10-16T09:01:12;20.20;;;8.85;;
66256;SDS011;53049;43.446;3.698;2022-10-16T09:19:51;22.85;;;8.63;;
66256;SDS011;53049;43.446;3.698;2022-10-16T09:22:24;20.63;;;7.90;;
66256;SDS011;53049;43.446;3.698;2022-10-16T09:24:53;19.90;;;8.75;;
66256;SDS011;53049;43.446;3.698;2022-10-16T09:27:26;23.38;;;8.68;;
66256;SDS011;53049;43.446;3.698;2022-10-16T09:29:52;20.20;;;8.73;;
66256;SDS011;53049;43.446;3.698;2022-10-16T09:32:19;21.33;;;9.18;;
66256;SDS011;53049;43.446;3.698;2022-10-16T09:34:48;18.65;;;8.32;;
66256;SDS011;53049;43.446;3.698;2022-10-16T09:37:19;23.60;;;8.43;;
66256;SDS011;53049;43.446;3.698;2022-10-16T09:39:47;19.25;;;8.20;;
66256;SDS011;53049;43.446;3.698;2022-10-16T09:42:30;21.35;;;8.57;;
66256;SDS011;53049;43.446;3.698;2022-10-16T09:44:57;24.27;;;9.23;;
66256;SDS011;53049;43.446;3.698;2022-10-16T09:47:25;18.52;;;8.00;;
66256;SDS011;53049;43.446;3.698;2022-10-16T09:50:05;18.92;;;7.60;;
66256;SDS011;53049;43.446;3.698;2022-10-16T09:52:47;16.73;;;8.48;;
66256;SDS011;53049;43.446;3.698;2022-10-16T09:55:15;16.75;;;7.70;;
66256;SDS011;53049;43.446;3.698;2022-10-16T09:57:53;19.90;;;8.00;;
66256;SDS011;53049;43.446;3.698;2022-10-16T10:00:19;20.63;;;7.90;;
66256;SDS011;53049;43.446;3.698;2022-10-16T10:02:47;18.80;;;8.18;;
66256;SDS011;53049;43.446;3.698;2022-10-16T10:07:56;17.52;;;8.88;;
66256;SDS011;53049;43.446;3.698;2022-10-16T10:10:28;20.65;;;8.20;;
66256;SDS011;53049;43.446;3.698;2022-10-16T10:12:55;23.25;;;8.98;;
66256;SDS011;53049;43.446;3.698;2022-10-16T10:15:21;18.52;;;7.95;;
66256;SDS011;53049;43.446;3.698;2022-10-16T10:17:53;22.75;;;9.02;;
66256;SDS011;53049;43.446;3.698;2022-10-16T10:22:53;21.17;;;8.43;;
66256;SDS011;53049;43.446;3.698;2022-10-16T10:25:38;19.10;;;7.80;;
66256;SDS011;53049;43.446;3.698;2022-10-16T10:28:10;22.20;;;8.45;;
66256;SDS011;53049;43.446;3.698;2022-10-16T10:36:22;20.70;;;8.88;;
66256;SDS011;53049;43.446;3.698;2022-10-16T10:54:53;17.42;;;7.60;;
66256;SDS011;53049;43.446;3.698;2022-10-16T10:57:41;23.55;;;8.40;;
66256;SDS011;53049;43.446;3.698;2022-10-16T11:02:54;21.80;;;7.88;;
66256;SDS011;53049;43.446;3.698;2022-10-16T11:05:50;20.88;;;7.97;;
66256;SDS011;53049;43.446;3.698;2022-10-16T11:16:39;20.27;;;8.65;;
66256;SDS011;53049;43.446;3.698;2022-10-16T11:19:51;21.70;;;7.85;;
66256;SDS011;53049;43.446;3.698;2022-10-16T11:25:11;23.00;;;8.85;;
66256;SDS011;53049;43.446;3.698;2022-10-16T11:27:45;22.13;;;9.60;;
66256;SDS011;53049;43.446;3.698;2022-10-16T11:30:24;25.02;;;8.70;;
66256;SDS011;53049;43.446;3.698;2022-10-16T11:35:44;17.77;;;7.63;;
66256;SDS011;53049;43.446;3.698;2022-10-16T11:41:16;24.35;;;8.43;;
66256;SDS011;53049;43.446;3.698;2022-10-16T11:43:52;16.13;;;8.05;;
66256;SDS011;53049;43.446;3.698;2022-10-16T11:46:43;22.27;;;8.20;;
66256;SDS011;53049;43.446;3.698;2022-10-16T11:49:17;17.30;;;7.78;;
66256;SDS011;53049;43.446;3.698;2022-10-16T11:51:48;16.00;;;7.50;;
66256;SDS011;53049;43.446;3.698;2022-10-16T11:56:53;16.10;;;8.10;;
66256;SDS011;53049;43.446;3.698;2022-10-16T11:59:40;17.35;;;7.85;;
66256;SDS011;53049;43.446;3.698;2022-10-16T12:07:57;17.95;;;8.00;;
66256;SDS011;53049;43.446;3.698;2022-10-16T12:10:38;18.95;;;7.72;;
66256;SDS011;53049;43.446;3.698;2022-10-16T12:13:26;16.65;;;7.65;;
66256;SDS011;53049;43.446;3.698;2022-10-16T12:18:37;18.17;;;7.95;;
66256;SDS011;53049;43.446;3.698;2022-10-16T12:21:07;19.48;;;8.30;;
66256;SDS011;53049;43.446;3.698;2022-10-16T12:23:37;16.75;;;7.20;;
66256;SDS011;53049;43.446;3.698;2022-10-16T12:26:11;21.13;;;7.53;;
66256;SDS011;53049;43.446;3.698;2022-10-16T12:28:37;18.13;;;7.30;;
66256;SDS011;53049;43.446;3.698;2022-10-16T12:31:05;18.63;;;8.77;;
66256;SDS011;53049;43.446;3.698;2022-10-16T12:33:34;18.27;;;7.72;;
66256;SDS011;53049;43.446;3.698;2022-10-16T12:36:54;19.58;;;7.30;;
66256;SDS011;53049;43.446;3.698;2022-10-16T12:39:20;19.75;;;6.97;;
66256;SDS011;53049;43.446;3.698;2022-10-16T12:42:02;17.80;;;6.30;;
66256;SDS011;53049;43.446;3.698;2022-10-16T12:44:33;16.65;;;7.40;;
66256;SDS011;53049;43.446;3.698;2022-10-16T12:47:00;17.35;;;7.28;;
66256;SDS011;53049;43.446;3.698;2022-10-16T12:51:53;18.38;;;7.63;;
66256;SDS011;53049;43.446;3.698;2022-10-16T12:54:29;17.13;;;6.90;;
66256;SDS011;53049;43.446;3.698;2022-10-16T13:08:45;14.60;;;6.47;;
66256;SDS011;53049;43.446;3.698;2022-10-16T13:11:16;16.00;;;6.43;;
66256;SDS011;53049;43.446;3.698;2022-10-16T13:16:48;13.73;;;6.38;;
66256;SDS011;53049;43.446;3.698;2022-10-16T13:19:31;15.43;;;6.20;;
66256;SDS011;53049;43.446;3.698;2022-10-16T13:22:05;19.23;;;6.68;;
66256;SDS011;53049;43.446;3.698;2022-10-16T13:24:49;18.60;;;6.97;;
66256;SDS011;53049;43.446;3.698;2022-10-16T13:27:52;18.33;;;6.78;;
66256;SDS011;53049;43.446;3.698;2022-10-16T13:30:26;18.77;;;7.72;;
66256;SDS011;53049;43.446;3.698;2022-10-16T13:33:04;18.92;;;6.50;;
66256;SDS011;53049;43.446;3.698;2022-10-16T13:35:35;21.05;;;7.18;;
66256;SDS011;53049;43.446;3.698;2022-10-16T13:38:05;18.60;;;7.05;;
66256;SDS011;53049;43.446;3.698;2022-10-16T13:40:55;15.15;;;6.50;;
66256;SDS011;53049;43.446;3.698;2022-10-16T13:43:27;15.13;;;6.88;;
66256;SDS011;53049;43.446;3.698;2022-10-16T13:46:00;15.88;;;6.90;;
66256;SDS011;53049;43.446;3.698;2022-10-16T13:48:31;19.88;;;7.13;;
66256;SDS011;53049;43.446;3.698;2022-10-16T13:51:03;16.38;;;6.22;;
66256;SDS011;53049;43.446;3.698;2022-10-16T13:53:32;19.20;;;6.55;;
66256;SDS011;53049;43.446;3.698;2022-10-16T13:56:02;15.48;;;6.38;;
66256;SDS011;53049;43.446;3.698;2022-10-16T13:58:32;15.27;;;6.10;;
66256;SDS011;53049;43.446;3.698;2022-10-16T14:01:00;16.67;;;6.15;;
66256;SDS011;53049;43.446;3.698;2022-10-16T14:03:29;15.82;;;6.25;;
66256;SDS011;53049;43.446;3.698;2022-10-16T14:05:58;16.70;;;6.80;;
66256;SDS011;53049;43.446;3.698;2022-10-16T14:08:26;17.88;;;6.13;;
66256;SDS011;53049;43.446;3.698;2022-10-16T14:10:59;16.52;;;6.50;;
66256;SDS011;53049;43.446;3.698;2022-10-16T14:13:29;14.73;;;6.60;;
66256;SDS011;53049;43.446;3.698;2022-10-16T14:16:07;20.98;;;7.03;;
66256;SDS011;53049;43.446;3.698;2022-10-16T14:18:35;14.18;;;5.60;;
66256;SDS011;53049;43.446;3.698;2022-10-16T14:21:07;16.95;;;5.95;;
66256;SDS011;53049;43.446;3.698;2022-10-16T14:23:38;13.27;;;6.13;;
66256;SDS011;53049;43.446;3.698;2022-10-16T14:28:33;13.35;;;5.78;;
66256;SDS011;53049;43.446;3.698;2022-10-16T14:31:01;15.18;;;6.10;;
66256;SDS011;53049;43.446;3.698;2022-10-16T14:36:02;16.48;;;6.22;;
66256;SDS011;53049;43.446;3.698;2022-10-16T14:38:31;18.50;;;6.60;;
66256;SDS011;53049;43.446;3.698;2022-10-16T14:40:58;19.95;;;7.15;;
66256;SDS011;53049;43.446;3.698;2022-10-16T14:45:58;19.33;;;7.00;;
66256;SDS011;53049;43.446;3.698;2022-10-16T14:48:25;17.33;;;5.95;;
66256;SDS011;53049;43.446;3.698;2022-10-16T14:50:51;17.58;;;6.82;;
66256;SDS011;53049;43.446;3.698;2022-10-16T14:53:18;17.42;;;6.45;;
66256;SDS011;53049;43.446;3.698;2022-10-16T14:55:43;16.75;;;6.45;;
66256;SDS011;53049;43.446;3.698;2022-10-16T14:58:16;14.93;;;6.22;;
66256;SDS011;53049;43.446;3.698;2022-10-16T15:00:44;18.75;;;6.65;;
66256;SDS011;53049;43.446;3.698;2022-10-16T15:03:10;14.07;;;5.82;;
66256;SDS011;53049;43.446;3.698;2022-10-16T15:05:36;18.60;;;6.65;;
66256;SDS011;53049;43.446;3.698;2022-10-16T15:08:02;18.02;;;6.35;;
66256;SDS011;53049;43.446;3.698;2022-10-16T15:10:29;18.40;;;6.90;;
66256;SDS011;53049;43.446;3.698;2022-10-16T15:12:56;19.27;;;6.75;;
66256;SDS011;53049;43.446;3.698;2022-10-16T15:17:48;18.33;;;6.35;;
66256;SDS011;53049;43.446;3.698;2022-10-16T15:20:17;19.85;;;6.65;;
66256;SDS011;53049;43.446;3.698;2022-10-16T15:22:43;15.68;;;7.45;;
66256;SDS011;53049;43.446;3.698;2022-10-16T15:25:28;16.42;;;6.28;;
66256;SDS011;53049;43.446;3.698;2022-10-16T15:27:58;19.73;;;6.88;;
66256;SDS011;53049;43.446;3.698;2022-10-16T15:30:25;22.08;;;7.07;;
66256;SDS011;53049;43.446;3.698;2022-10-16T15:32:50;20.48;;;6.97;;
66256;SDS011;53049;43.446;3.698;2022-10-16T15:35:16;19.95;;;6.57;;
66256;SDS011;53049;43.446;3.698;2022-10-16T15:37:42;15.15;;;6.10;;
66256;SDS011;53049;43.446;3.698;2022-10-16T15:40:09;20.65;;;6.90;;
66256;SDS011;53049;43.446;3.698;2022-10-16T15:42:35;20.95;;;6.53;;
66256;SDS011;53049;43.446;3.698;2022-10-16T15:45:01;18.02;;;7.43;;
66256;SDS011;53049;43.446;3.698;2022-10-16T15:47:28;20.17;;;6.50;;
66256;SDS011;53049;43.446;3.698;2022-10-16T15:49:53;22.13;;;7.32;;
66256;SDS011;53049;43.446;3.698;2022-10-16T15:52:19;17.60;;;6.53;;
66256;SDS011;53049;43.446;3.698;2022-10-16T15:54:45;16.52;;;6.00;;
66256;SDS011;53049;43.446;3.698;2022-10-16T15:57:11;20.30;;;7.20;;
66256;SDS011;53049;43.446;3.698;2022-10-16T15:59:37;22.75;;;6.53;;
66256;SDS011;53049;43.446;3.698;2022-10-16T16:02:03;18.10;;;6.55;;
66256;SDS011;53049;43.446;3.698;2022-10-16T16:04:31;19.20;;;6.28;;
66256;SDS011;53049;43.446;3.698;2022-10-16T16:06:57;17.73;;;6.55;;
66256;SDS011;53049;43.446;3.698;2022-10-16T16:09:23;18.55;;;6.75;;
66256;SDS011;53049;43.446;3.698;2022-10-16T16:11:49;15.50;;;6.10;;
66256;SDS011;53049;43.446;3.698;2022-10-16T16:14:16;20.02;;;7.13;;
66256;SDS011;53049;43.446;3.698;2022-10-16T16:16:42;18.17;;;6.32;;
66256;SDS011;53049;43.446;3.698;2022-10-16T16:19:09;20.35;;;7.30;;
66256;SDS011;53049;43.446;3.698;2022-10-16T16:21:35;17.23;;;6.35;;
66256;SDS011;53049;43.446;3.698;2022-10-16T16:24:03;16.73;;;6.13;;
66256;SDS011;53049;43.446;3.698;2022-10-16T16:26:33;20.10;;;7.32;;
66256;SDS011;53049;43.446;3.698;2022-10-16T16:29:05;15.43;;;6.90;;
66256;SDS011;53049;43.446;3.698;2022-10-16T16:31:40;18.48;;;6.88;;
66256;SDS011;53049;43.446;3.698;2022-10-16T16:34:06;14.57;;;5.95;;
66256;SDS011;53049;43.446;3.698;2022-10-16T16:36:33;20.77;;;6.63;;
66256;SDS011;53049;43.446;3.698;2022-10-16T16:39:08;19.77;;;6.28;;
66256;SDS011;53049;43.446;3.698;2022-10-16T16:41:39;22.02;;;7.25;;
66256;SDS011;53049;43.446;3.698;2022-10-16T16:44:06;17.73;;;6.25;;
66256;SDS011;53049;43.446;3.698;2022-10-16T16:46:34;20.58;;;6.00;;